SXS8UA EDDN-LTBJ
Flight info
| Callsign | SXS8UA |
|---|---|
| Flight time | 2h 24m |
| Altitude | 35000 |
| Route | RODIS1G RODIS L604 LAMSI DCT SASAL DCT BABIT/N0436F370 DCT LULIK DCT NIVIS DCT BGD DCT NEPOS DCT NISVA DCT NIKTI DCT LMO UN127 RIKSO |
| Aircraft | B738/M-SDE2E3FGHIRWXY/LB1 |
Departure
| Time | 2026-05-06 14:44 |
|---|---|
| Airport | Nuremberg Airport (EDDN) |
Arrival
| Time | 2026-05-06 17:08 |
|---|---|
| Airport | Adnan Menderes International Airport (LTBJ) |
| Time | Latitude | Longitude | Altitude | Speed | Heading |
|---|---|---|---|---|---|
| 2026-05-06 14:17 | 49.49524 | 11.07725 | 1024 ft | 0 kts | 188° |
| 2026-05-06 14:33 | 49.49530 | 11.07727 | 1023 ft | 3 kts | 188° |
| 2026-05-06 14:33 | 49.49550 | 11.07731 | 1027 ft | 3 kts | 185° |
| 2026-05-06 14:33 | 49.49570 | 11.07733 | 1027 ft | 3 kts | 181° |
| 2026-05-06 14:34 | 49.49590 | 11.07733 | 1028 ft | 3 kts | 176° |
| 2026-05-06 14:34 | 49.49597 | 11.07732 | 1029 ft | 4 kts | 175° |
| 2026-05-06 14:37 | 49.49595 | 11.07736 | 1029 ft | 1 kts | 148° |
| 2026-05-06 14:38 | 49.49587 | 11.07766 | 1028 ft | 7 kts | 101° |
| 2026-05-06 14:38 | 49.49576 | 11.07870 | 1029 ft | 12 kts | 95° |
| 2026-05-06 14:38 | 49.49565 | 11.08004 | 1029 ft | 11 kts | 100° |
| 2026-05-06 14:38 | 49.49553 | 11.08104 | 1029 ft | 7 kts | 100° |
| 2026-05-06 14:39 | 49.49547 | 11.08155 | 1029 ft | 3 kts | 98° |
| 2026-05-06 14:39 | 49.49543 | 11.08206 | 1029 ft | 6 kts | 98° |
| 2026-05-06 14:39 | 49.49535 | 11.08282 | 1030 ft | 8 kts | 98° |
| 2026-05-06 14:39 | 49.49558 | 11.08354 | 1031 ft | 9 kts | 22° |
| 2026-05-06 14:40 | 49.49618 | 11.08404 | 1030 ft | 11 kts | 56° |
| 2026-05-06 14:40 | 49.49614 | 11.08486 | 1031 ft | 7 kts | 101° |
| 2026-05-06 14:40 | 49.49602 | 11.08583 | 1032 ft | 11 kts | 101° |
| 2026-05-06 14:40 | 49.49586 | 11.08722 | 1033 ft | 15 kts | 98° |
| 2026-05-06 14:41 | 49.49571 | 11.08896 | 1036 ft | 18 kts | 99° |
| 2026-05-06 14:41 | 49.49553 | 11.09070 | 1036 ft | 14 kts | 99° |
| 2026-05-06 14:41 | 49.49540 | 11.09193 | 1038 ft | 9 kts | 99° |
| 2026-05-06 14:41 | 49.49535 | 11.09247 | 1039 ft | 2 kts | 97° |
| 2026-05-06 14:42 | 49.49531 | 11.09291 | 1040 ft | 8 kts | 97° |
| 2026-05-06 14:42 | 49.49550 | 11.09400 | 1041 ft | 13 kts | 59° |
| 2026-05-06 14:42 | 49.49602 | 11.09509 | 1042 ft | 12 kts | 54° |
| 2026-05-06 14:42 | 49.49674 | 11.09557 | 1044 ft | 10 kts | 342° |
| 2026-05-06 14:43 | 49.49708 | 11.09455 | 1042 ft | 14 kts | 279° |
| 2026-05-06 14:43 | 49.49726 | 11.09260 | 1041 ft | 49 kts | 278° |
| 2026-05-06 14:43 | 49.49811 | 11.08386 | 1029 ft | 114 kts | 278° |
| 2026-05-06 14:43 | 49.49952 | 11.06911 | 1021 ft | 165 kts | 279° |
| 2026-05-06 14:44 | 49.50148 | 11.05052 | 1441 ft | 181 kts | 281° |
| 2026-05-06 14:44 | 49.50370 | 11.03203 | 2437 ft | 170 kts | 278° |
| 2026-05-06 14:44 | 49.50533 | 11.01336 | 3155 ft | 184 kts | 277° |
| 2026-05-06 14:45 | 49.50924 | 10.96835 | 3806 ft | 236 kts | 278° |
| 2026-05-06 14:45 | 49.51560 | 10.94423 | 4122 ft | 259 kts | 311° |
| 2026-05-06 14:45 | 49.53099 | 10.92871 | 4780 ft | 276 kts | 340° |
| 2026-05-06 14:45 | 49.54999 | 10.92368 | 5697 ft | 279 kts | 357° |
| 2026-05-06 14:46 | 49.56950 | 10.92420 | 6521 ft | 282 kts | 1° |
| 2026-05-06 14:46 | 49.58925 | 10.92544 | 7271 ft | 287 kts | 1° |
| 2026-05-06 14:46 | 49.60912 | 10.92645 | 7984 ft | 292 kts | 0° |
| 2026-05-06 14:46 | 49.62989 | 10.92731 | 8735 ft | 297 kts | 360° |
| 2026-05-06 14:47 | 49.65076 | 10.92799 | 9513 ft | 303 kts | 0° |
| 2026-05-06 14:47 | 49.67157 | 10.93441 | 10127 ft | 314 kts | 24° |
| 2026-05-06 14:47 | 49.68932 | 10.95550 | 10324 ft | 336 kts | 54° |
| 2026-05-06 14:47 | 49.69879 | 10.98837 | 10671 ft | 347 kts | 84° |
| 2026-05-06 14:48 | 49.69851 | 11.02548 | 11316 ft | 347 kts | 98° |
| 2026-05-06 14:48 | 49.69598 | 11.06284 | 12025 ft | 352 kts | 99° |
| 2026-05-06 14:48 | 49.69357 | 11.10062 | 12746 ft | 356 kts | 98° |
| 2026-05-06 14:48 | 49.69142 | 11.13891 | 13469 ft | 360 kts | 97° |
| 2026-05-06 14:49 | 49.68940 | 11.17771 | 14095 ft | 364 kts | 97° |
| 2026-05-06 14:49 | 49.68522 | 11.21618 | 14741 ft | 363 kts | 114° |
| 2026-05-06 14:49 | 49.67376 | 11.25068 | 15398 ft | 362 kts | 123° |
| 2026-05-06 14:49 | 49.66121 | 11.28463 | 15719 ft | 365 kts | 123° |
| 2026-05-06 14:50 | 49.64865 | 11.31878 | 15742 ft | 367 kts | 123° |
| 2026-05-06 14:50 | 49.63618 | 11.35310 | 15757 ft | 366 kts | 123° |
| 2026-05-06 14:50 | 49.62376 | 11.38751 | 15764 ft | 368 kts | 123° |
| 2026-05-06 14:50 | 49.61135 | 11.42198 | 15770 ft | 368 kts | 123° |
| 2026-05-06 14:51 | 49.59892 | 11.45656 | 15762 ft | 369 kts | 123° |
| 2026-05-06 14:51 | 49.58647 | 11.49118 | 15801 ft | 372 kts | 123° |
| 2026-05-06 14:51 | 49.57382 | 11.52624 | 16272 ft | 376 kts | 123° |
| 2026-05-06 14:51 | 49.56174 | 11.56189 | 17137 ft | 377 kts | 118° |
| 2026-05-06 14:52 | 49.55230 | 11.59974 | 17877 ft | 380 kts | 113° |
| 2026-05-06 14:52 | 49.54394 | 11.63854 | 18438 ft | 384 kts | 112° |
| 2026-05-06 14:52 | 49.53564 | 11.67788 | 18963 ft | 388 kts | 112° |
| 2026-05-06 14:52 | 49.52710 | 11.71743 | 19500 ft | 391 kts | 113° |
| 2026-05-06 14:53 | 49.51825 | 11.75728 | 19906 ft | 397 kts | 114° |
| 2026-05-06 14:53 | 49.50911 | 11.79759 | 20427 ft | 400 kts | 114° |
| 2026-05-06 14:53 | 49.49984 | 11.83803 | 21000 ft | 402 kts | 115° |
| 2026-05-06 14:53 | 49.49048 | 11.87866 | 21550 ft | 404 kts | 115° |
| 2026-05-06 14:54 | 49.48105 | 11.91946 | 22081 ft | 407 kts | 115° |
| 2026-05-06 14:54 | 49.47153 | 11.96056 | 22607 ft | 409 kts | 115° |
| 2026-05-06 14:54 | 49.46194 | 12.00198 | 23109 ft | 413 kts | 115° |
| 2026-05-06 14:54 | 49.45229 | 12.04370 | 23559 ft | 416 kts | 115° |
| 2026-05-06 14:55 | 49.44256 | 12.08569 | 23944 ft | 419 kts | 115° |
| 2026-05-06 14:55 | 49.43274 | 12.12802 | 24333 ft | 422 kts | 115° |
| 2026-05-06 14:55 | 49.42283 | 12.17068 | 24706 ft | 425 kts | 116° |
| 2026-05-06 14:55 | 49.41284 | 12.21358 | 25092 ft | 428 kts | 116° |
| 2026-05-06 14:56 | 49.40276 | 12.25680 | 25465 ft | 431 kts | 116° |
| 2026-05-06 14:56 | 49.39260 | 12.30029 | 25831 ft | 434 kts | 116° |
| 2026-05-06 14:56 | 49.38235 | 12.34404 | 26182 ft | 437 kts | 116° |
| 2026-05-06 14:56 | 49.37203 | 12.38807 | 26542 ft | 440 kts | 116° |
| 2026-05-06 14:57 | 49.36162 | 12.43237 | 26904 ft | 443 kts | 116° |
| 2026-05-06 14:57 | 49.35109 | 12.47703 | 27138 ft | 448 kts | 116° |
| 2026-05-06 14:57 | 49.33889 | 12.52085 | 27510 ft | 443 kts | 125° |
| 2026-05-06 14:57 | 49.32282 | 12.55995 | 27850 ft | 437 kts | 134° |
| 2026-05-06 14:58 | 49.30301 | 12.59465 | 28164 ft | 431 kts | 142° |
| 2026-05-06 14:58 | 49.28164 | 12.62710 | 28498 ft | 434 kts | 142° |
| 2026-05-06 14:58 | 49.26013 | 12.65963 | 28808 ft | 437 kts | 142° |
| 2026-05-06 14:58 | 49.23854 | 12.69256 | 29131 ft | 439 kts | 142° |
| 2026-05-06 14:59 | 49.21695 | 12.72583 | 29427 ft | 442 kts | 142° |
| 2026-05-06 14:59 | 49.19528 | 12.75939 | 29716 ft | 445 kts | 142° |
| 2026-05-06 14:59 | 49.17349 | 12.79314 | 29952 ft | 447 kts | 142° |
| 2026-05-06 14:59 | 49.15158 | 12.82701 | 30271 ft | 447 kts | 142° |
| 2026-05-06 15:00 | 49.12977 | 12.86064 | 30692 ft | 444 kts | 142° |
| 2026-05-06 15:00 | 49.10803 | 12.89410 | 31033 ft | 444 kts | 142° |
| 2026-05-06 15:00 | 49.08627 | 12.92748 | 31368 ft | 444 kts | 142° |
| 2026-05-06 15:00 | 49.06449 | 12.96081 | 31700 ft | 443 kts | 143° |
| 2026-05-06 15:01 | 49.04270 | 12.99414 | 32010 ft | 443 kts | 143° |
| 2026-05-06 15:01 | 49.02097 | 13.02737 | 32341 ft | 443 kts | 142° |
| 2026-05-06 15:01 | 48.99924 | 13.06057 | 32674 ft | 442 kts | 143° |
| 2026-05-06 15:01 | 48.97764 | 13.09355 | 33101 ft | 438 kts | 143° |
| 2026-05-06 15:02 | 48.95615 | 13.12631 | 33430 ft | 437 kts | 143° |
| 2026-05-06 15:02 | 48.93460 | 13.15907 | 33684 ft | 438 kts | 143° |
| 2026-05-06 15:02 | 48.91304 | 13.19185 | 33914 ft | 439 kts | 143° |
| 2026-05-06 15:02 | 48.89142 | 13.22465 | 34145 ft | 439 kts | 143° |
| 2026-05-06 15:03 | 48.86985 | 13.25734 | 34365 ft | 438 kts | 143° |
| 2026-05-06 15:03 | 48.84826 | 13.28995 | 34586 ft | 437 kts | 143° |
| 2026-05-06 15:03 | 48.82668 | 13.32246 | 34736 ft | 439 kts | 143° |
| 2026-05-06 15:04 | 48.78321 | 13.38786 | 34730 ft | 440 kts | 143° |
| 2026-05-06 15:04 | 48.73992 | 13.45293 | 34739 ft | 437 kts | 143° |
| 2026-05-06 15:05 | 48.69680 | 13.51754 | 34722 ft | 435 kts | 144° |
| 2026-05-06 15:05 | 48.65405 | 13.58215 | 34730 ft | 437 kts | 140° |
| 2026-05-06 15:06 | 48.61799 | 13.65684 | 34717 ft | 445 kts | 132° |
| 2026-05-06 15:06 | 48.58375 | 13.73490 | 34725 ft | 446 kts | 132° |
| 2026-05-06 15:07 | 48.54929 | 13.81265 | 34732 ft | 446 kts | 133° |
| 2026-05-06 15:07 | 48.51443 | 13.89007 | 34730 ft | 446 kts | 133° |
| 2026-05-06 15:08 | 48.47933 | 13.96737 | 34688 ft | 447 kts | 133° |
| 2026-05-06 15:08 | 48.44415 | 14.04456 | 34715 ft | 447 kts | 133° |
| 2026-05-06 15:09 | 48.40889 | 14.12172 | 34721 ft | 447 kts | 133° |
| 2026-05-06 15:09 | 48.37355 | 14.19885 | 34729 ft | 448 kts | 133° |
| 2026-05-06 15:10 | 48.33809 | 14.27602 | 34711 ft | 449 kts | 133° |
| 2026-05-06 15:10 | 48.30262 | 14.35302 | 34716 ft | 447 kts | 133° |
| 2026-05-06 15:11 | 48.26714 | 14.42983 | 34719 ft | 447 kts | 133° |
| 2026-05-06 15:11 | 48.23167 | 14.50638 | 34715 ft | 446 kts | 133° |
| 2026-05-06 15:12 | 48.19619 | 14.58273 | 34729 ft | 446 kts | 133° |
| 2026-05-06 15:12 | 48.16068 | 14.65893 | 34714 ft | 446 kts | 133° |
| 2026-05-06 15:13 | 48.12524 | 14.73476 | 34715 ft | 445 kts | 133° |
| 2026-05-06 15:13 | 48.08967 | 14.81067 | 34738 ft | 446 kts | 133° |
| 2026-05-06 15:14 | 48.05398 | 14.88659 | 34738 ft | 447 kts | 133° |
| 2026-05-06 15:14 | 48.01813 | 14.96264 | 34753 ft | 449 kts | 133° |
| 2026-05-06 15:15 | 47.98201 | 15.03906 | 34713 ft | 451 kts | 133° |
| 2026-05-06 15:15 | 47.94574 | 15.11560 | 34742 ft | 453 kts | 133° |
| 2026-05-06 15:16 | 47.90952 | 15.19185 | 34726 ft | 454 kts | 133° |
| 2026-05-06 15:16 | 47.87299 | 15.26858 | 34760 ft | 455 kts | 133° |
| 2026-05-06 15:17 | 47.83627 | 15.34541 | 34759 ft | 456 kts | 133° |
| 2026-05-06 15:17 | 47.79943 | 15.42227 | 34760 ft | 456 kts | 132° |
| 2026-05-06 15:18 | 47.76252 | 15.49908 | 34781 ft | 457 kts | 132° |
| 2026-05-06 15:18 | 47.72561 | 15.57568 | 34771 ft | 454 kts | 132° |
| 2026-05-06 15:19 | 47.68912 | 15.65129 | 34820 ft | 449 kts | 133° |
| 2026-05-06 15:19 | 47.65255 | 15.72668 | 34776 ft | 450 kts | 132° |
| 2026-05-06 15:20 | 47.61612 | 15.80177 | 34821 ft | 449 kts | 133° |
| 2026-05-06 15:20 | 47.57933 | 15.87714 | 34801 ft | 453 kts | 132° |
| 2026-05-06 15:21 | 47.54226 | 15.95295 | 34809 ft | 456 kts | 132° |
| 2026-05-06 15:21 | 47.50497 | 16.02907 | 34812 ft | 457 kts | 132° |
| 2026-05-06 15:22 | 47.46756 | 16.10526 | 34810 ft | 458 kts | 132° |
| 2026-05-06 15:22 | 47.43015 | 16.18122 | 34813 ft | 457 kts | 132° |
| 2026-05-06 15:23 | 47.39271 | 16.25705 | 34827 ft | 456 kts | 132° |
| 2026-05-06 15:23 | 47.35531 | 16.33255 | 34835 ft | 455 kts | 132° |
| 2026-05-06 15:24 | 47.31792 | 16.40786 | 34836 ft | 454 kts | 132° |
| 2026-05-06 15:24 | 47.28052 | 16.48288 | 34845 ft | 453 kts | 133° |
| 2026-05-06 15:25 | 47.24222 | 16.55623 | 34848 ft | 450 kts | 134° |
| 2026-05-06 15:25 | 47.20381 | 16.62807 | 34839 ft | 449 kts | 134° |
| 2026-05-06 15:26 | 47.16531 | 16.70015 | 34850 ft | 448 kts | 134° |
| 2026-05-06 15:26 | 47.12692 | 16.77219 | 34856 ft | 447 kts | 133° |
| 2026-05-06 15:27 | 47.08854 | 16.84411 | 34869 ft | 448 kts | 134° |
| 2026-05-06 15:27 | 47.05005 | 16.91608 | 34867 ft | 449 kts | 134° |
| 2026-05-06 15:28 | 47.01136 | 16.98824 | 34879 ft | 451 kts | 134° |
| 2026-05-06 15:28 | 46.97251 | 17.06049 | 34861 ft | 452 kts | 134° |
| 2026-05-06 15:29 | 46.93346 | 17.13295 | 34880 ft | 454 kts | 134° |
| 2026-05-06 15:29 | 46.89427 | 17.20546 | 34889 ft | 455 kts | 134° |
| 2026-05-06 15:30 | 46.86158 | 17.26580 | 34882 ft | 456 kts | 134° |
| 2026-05-06 15:30 | 46.82222 | 17.33830 | 34892 ft | 456 kts | 134° |
| 2026-05-06 15:31 | 46.78274 | 17.41081 | 34879 ft | 456 kts | 134° |
| 2026-05-06 15:31 | 46.74332 | 17.48303 | 34892 ft | 455 kts | 134° |
| 2026-05-06 15:32 | 46.68413 | 17.59110 | 34897 ft | 455 kts | 134° |
| 2026-05-06 15:32 | 46.64449 | 17.66321 | 35101 ft | 457 kts | 134° |
| 2026-05-06 15:33 | 46.62464 | 17.69928 | 35359 ft | 456 kts | 134° |
| 2026-05-06 15:33 | 46.60487 | 17.73516 | 35719 ft | 453 kts | 134° |
| 2026-05-06 15:33 | 46.58521 | 17.77081 | 36044 ft | 450 kts | 134° |
| 2026-05-06 15:33 | 46.56567 | 17.80619 | 36306 ft | 449 kts | 134° |
| 2026-05-06 15:34 | 46.54607 | 17.84159 | 36503 ft | 450 kts | 134° |
| 2026-05-06 15:34 | 46.52646 | 17.87697 | 36720 ft | 449 kts | 134° |
| 2026-05-06 15:34 | 46.50687 | 17.91226 | 36919 ft | 449 kts | 134° |
| 2026-05-06 15:34 | 46.48718 | 17.94768 | 36892 ft | 452 kts | 134° |
| 2026-05-06 15:35 | 46.44777 | 18.01849 | 36884 ft | 450 kts | 134° |
| 2026-05-06 15:35 | 46.40868 | 18.08856 | 36901 ft | 449 kts | 134° |
| 2026-05-06 15:36 | 46.36931 | 18.15892 | 36906 ft | 450 kts | 134° |
| 2026-05-06 15:36 | 46.32990 | 18.22919 | 36895 ft | 450 kts | 134° |
| 2026-05-06 15:37 | 46.29039 | 18.29947 | 36897 ft | 450 kts | 134° |
| 2026-05-06 15:37 | 46.25080 | 18.36968 | 36906 ft | 451 kts | 134° |
| 2026-05-06 15:38 | 46.21115 | 18.43987 | 36909 ft | 451 kts | 134° |
| 2026-05-06 15:38 | 46.17141 | 18.51000 | 36906 ft | 452 kts | 134° |
| 2026-05-06 15:39 | 46.13153 | 18.58022 | 36911 ft | 452 kts | 134° |
| 2026-05-06 15:39 | 46.09160 | 18.65035 | 36894 ft | 453 kts | 134° |
| 2026-05-06 15:40 | 46.05160 | 18.72044 | 36902 ft | 453 kts | 134° |
| 2026-05-06 15:40 | 46.01153 | 18.79047 | 36902 ft | 453 kts | 134° |
| 2026-05-06 15:41 | 45.97140 | 18.86047 | 36901 ft | 454 kts | 134° |
| 2026-05-06 15:41 | 45.93104 | 18.93012 | 36890 ft | 452 kts | 137° |
| 2026-05-06 15:42 | 45.88550 | 18.99127 | 36905 ft | 447 kts | 144° |
| 2026-05-06 15:42 | 45.83877 | 19.04934 | 36905 ft | 447 kts | 144° |
| 2026-05-06 15:43 | 45.79195 | 19.10820 | 36904 ft | 448 kts | 143° |
| 2026-05-06 15:43 | 45.74534 | 19.16745 | 36900 ft | 448 kts | 143° |
| 2026-05-06 15:44 | 45.69877 | 19.22671 | 36906 ft | 448 kts | 143° |
| 2026-05-06 15:44 | 45.65212 | 19.28591 | 36909 ft | 448 kts | 143° |
| 2026-05-06 15:45 | 45.60538 | 19.34507 | 36909 ft | 449 kts | 143° |
| 2026-05-06 15:45 | 45.55858 | 19.40418 | 36913 ft | 450 kts | 143° |
| 2026-05-06 15:46 | 45.51165 | 19.46329 | 36910 ft | 450 kts | 143° |
| 2026-05-06 15:46 | 45.46473 | 19.52227 | 36911 ft | 450 kts | 143° |
| 2026-05-06 15:47 | 45.41777 | 19.58120 | 36910 ft | 450 kts | 143° |
| 2026-05-06 15:47 | 45.37084 | 19.63997 | 36912 ft | 449 kts | 143° |
| 2026-05-06 15:48 | 45.32394 | 19.69857 | 36905 ft | 448 kts | 143° |
| 2026-05-06 15:48 | 45.27709 | 19.75701 | 36915 ft | 448 kts | 143° |
| 2026-05-06 15:49 | 45.23016 | 19.81511 | 36924 ft | 448 kts | 143° |
| 2026-05-06 15:49 | 45.18285 | 19.87258 | 36924 ft | 447 kts | 143° |
| 2026-05-06 15:50 | 45.13556 | 19.92982 | 36925 ft | 447 kts | 143° |
| 2026-05-06 15:50 | 45.08827 | 19.98706 | 36914 ft | 447 kts | 143° |
| 2026-05-06 15:51 | 45.04095 | 20.04427 | 36932 ft | 448 kts | 143° |
| 2026-05-06 15:51 | 44.99349 | 20.10152 | 36915 ft | 449 kts | 143° |
| 2026-05-06 15:52 | 44.94592 | 20.15879 | 36915 ft | 450 kts | 143° |
| 2026-05-06 15:52 | 44.89825 | 20.21605 | 36904 ft | 451 kts | 143° |
| 2026-05-06 15:53 | 44.85046 | 20.27335 | 36914 ft | 451 kts | 143° |
| 2026-05-06 15:53 | 44.80317 | 20.33185 | 36910 ft | 454 kts | 139° |
| 2026-05-06 15:54 | 44.75874 | 20.39438 | 36920 ft | 455 kts | 137° |
| 2026-05-06 15:54 | 44.71433 | 20.45802 | 36923 ft | 456 kts | 138° |
| 2026-05-06 15:55 | 44.66960 | 20.52145 | 36919 ft | 457 kts | 137° |
| 2026-05-06 15:55 | 44.62467 | 20.58458 | 36922 ft | 457 kts | 138° |
| 2026-05-06 15:56 | 44.57966 | 20.64755 | 36927 ft | 457 kts | 138° |
| 2026-05-06 15:56 | 44.53466 | 20.71037 | 36921 ft | 456 kts | 138° |
| 2026-05-06 15:57 | 44.48966 | 20.77305 | 36916 ft | 456 kts | 137° |
| 2026-05-06 15:57 | 44.44475 | 20.83548 | 36931 ft | 455 kts | 138° |
| 2026-05-06 15:58 | 44.39987 | 20.89772 | 36925 ft | 454 kts | 138° |
| 2026-05-06 15:58 | 44.35500 | 20.95980 | 36925 ft | 453 kts | 138° |
| 2026-05-06 15:59 | 44.31016 | 21.02169 | 36915 ft | 453 kts | 137° |
| 2026-05-06 15:59 | 44.26533 | 21.08344 | 36929 ft | 453 kts | 137° |
| 2026-05-06 16:00 | 44.22044 | 21.14514 | 36928 ft | 453 kts | 137° |
| 2026-05-06 16:00 | 44.17552 | 21.20673 | 36933 ft | 453 kts | 138° |
| 2026-05-06 16:01 | 44.13052 | 21.26830 | 36919 ft | 454 kts | 137° |
| 2026-05-06 16:01 | 44.08537 | 21.32994 | 36938 ft | 455 kts | 137° |
| 2026-05-06 16:02 | 44.04045 | 21.39115 | 36928 ft | 455 kts | 137° |
| 2026-05-06 16:02 | 43.99515 | 21.45268 | 36929 ft | 456 kts | 138° |
| 2026-05-06 16:03 | 43.94962 | 21.51401 | 36931 ft | 456 kts | 137° |
| 2026-05-06 16:03 | 43.90403 | 21.57522 | 36930 ft | 457 kts | 138° |
| 2026-05-06 16:04 | 43.85834 | 21.63648 | 36928 ft | 457 kts | 138° |
| 2026-05-06 16:04 | 43.81264 | 21.69764 | 36936 ft | 457 kts | 138° |
| 2026-05-06 16:05 | 43.76684 | 21.75882 | 36927 ft | 458 kts | 137° |
| 2026-05-06 16:05 | 43.72100 | 21.81991 | 36938 ft | 458 kts | 138° |
| 2026-05-06 16:06 | 43.67510 | 21.88094 | 36941 ft | 458 kts | 138° |
| 2026-05-06 16:06 | 43.62944 | 21.94152 | 36939 ft | 458 kts | 138° |
| 2026-05-06 16:07 | 43.58342 | 22.00244 | 36940 ft | 458 kts | 138° |
| 2026-05-06 16:07 | 43.53742 | 22.06320 | 36940 ft | 458 kts | 138° |
| 2026-05-06 16:08 | 43.49145 | 22.12378 | 36936 ft | 457 kts | 138° |
| 2026-05-06 16:08 | 43.44547 | 22.18425 | 36938 ft | 457 kts | 138° |
| 2026-05-06 16:09 | 43.39951 | 22.24455 | 36942 ft | 456 kts | 138° |
| 2026-05-06 16:09 | 43.35352 | 22.30475 | 36946 ft | 456 kts | 138° |
| 2026-05-06 16:10 | 43.30752 | 22.36485 | 36954 ft | 456 kts | 138° |
| 2026-05-06 16:10 | 43.26147 | 22.42487 | 36962 ft | 456 kts | 138° |
| 2026-05-06 16:11 | 43.21538 | 22.48481 | 36965 ft | 457 kts | 138° |
| 2026-05-06 16:11 | 43.16922 | 22.54472 | 36967 ft | 457 kts | 138° |
| 2026-05-06 16:12 | 43.12302 | 22.60456 | 36974 ft | 457 kts | 138° |
| 2026-05-06 16:12 | 43.07666 | 22.66446 | 36969 ft | 458 kts | 138° |
| 2026-05-06 16:13 | 43.03031 | 22.72425 | 36977 ft | 459 kts | 138° |
| 2026-05-06 16:13 | 42.98383 | 22.78405 | 36981 ft | 459 kts | 138° |
| 2026-05-06 16:14 | 42.93389 | 22.83812 | 36990 ft | 458 kts | 147° |
| 2026-05-06 16:14 | 42.88109 | 22.88713 | 36982 ft | 459 kts | 148° |
| 2026-05-06 16:15 | 42.82818 | 22.93610 | 36969 ft | 460 kts | 147° |
| 2026-05-06 16:15 | 42.77577 | 22.98531 | 36990 ft | 461 kts | 147° |
| 2026-05-06 16:16 | 42.72306 | 23.03512 | 36993 ft | 462 kts | 147° |
| 2026-05-06 16:16 | 42.67028 | 23.08498 | 36990 ft | 462 kts | 147° |
| 2026-05-06 16:17 | 42.61746 | 23.13475 | 36998 ft | 462 kts | 147° |
| 2026-05-06 16:17 | 42.56461 | 23.18444 | 36988 ft | 462 kts | 147° |
| 2026-05-06 16:18 | 42.51170 | 23.23406 | 36996 ft | 462 kts | 147° |
| 2026-05-06 16:18 | 42.46769 | 23.27525 | 36998 ft | 463 kts | 147° |
| 2026-05-06 16:19 | 42.41475 | 23.32471 | 37000 ft | 462 kts | 147° |
| 2026-05-06 16:19 | 42.36182 | 23.37406 | 37016 ft | 462 kts | 147° |
| 2026-05-06 16:20 | 42.30891 | 23.42328 | 37031 ft | 462 kts | 147° |
| 2026-05-06 16:20 | 42.25594 | 23.47246 | 37027 ft | 462 kts | 147° |
| 2026-05-06 16:21 | 42.20288 | 23.52162 | 37036 ft | 463 kts | 147° |
| 2026-05-06 16:21 | 42.14979 | 23.57071 | 37038 ft | 463 kts | 147° |
| 2026-05-06 16:22 | 42.09661 | 23.61977 | 37021 ft | 463 kts | 147° |
| 2026-05-06 16:22 | 42.04348 | 23.66869 | 37033 ft | 463 kts | 147° |
| 2026-05-06 16:23 | 41.99031 | 23.71755 | 37045 ft | 463 kts | 147° |
| 2026-05-06 16:23 | 41.93706 | 23.76637 | 37040 ft | 464 kts | 147° |
| 2026-05-06 16:24 | 41.88407 | 23.81487 | 37040 ft | 464 kts | 147° |
| 2026-05-06 16:24 | 41.83064 | 23.86366 | 37034 ft | 465 kts | 147° |
| 2026-05-06 16:25 | 41.77709 | 23.91247 | 37034 ft | 466 kts | 147° |
| 2026-05-06 16:25 | 41.72346 | 23.96125 | 37036 ft | 466 kts | 147° |
| 2026-05-06 16:26 | 41.66977 | 24.00999 | 37036 ft | 467 kts | 147° |
| 2026-05-06 16:26 | 41.61601 | 24.05870 | 37023 ft | 467 kts | 147° |
| 2026-05-06 16:27 | 41.56215 | 24.10740 | 37039 ft | 467 kts | 147° |
| 2026-05-06 16:27 | 41.50650 | 24.15214 | 37041 ft | 467 kts | 154° |
| 2026-05-06 16:28 | 41.44883 | 24.19185 | 37026 ft | 467 kts | 155° |
| 2026-05-06 16:28 | 41.39102 | 24.23129 | 37022 ft | 467 kts | 154° |
| 2026-05-06 16:29 | 41.33342 | 24.27122 | 37034 ft | 467 kts | 154° |
| 2026-05-06 16:29 | 41.27599 | 24.31132 | 37040 ft | 466 kts | 154° |
| 2026-05-06 16:30 | 41.22821 | 24.34472 | 37022 ft | 467 kts | 154° |
| 2026-05-06 16:30 | 41.16109 | 24.39151 | 37035 ft | 467 kts | 154° |
| 2026-05-06 16:31 | 41.10345 | 24.43157 | 37042 ft | 468 kts | 154° |
| 2026-05-06 16:31 | 41.04610 | 24.47135 | 37047 ft | 469 kts | 154° |
| 2026-05-06 16:32 | 40.98782 | 24.51169 | 37017 ft | 470 kts | 154° |
| 2026-05-06 16:32 | 40.93024 | 24.55147 | 37027 ft | 471 kts | 154° |
| 2026-05-06 16:33 | 40.87214 | 24.59153 | 37023 ft | 471 kts | 154° |
| 2026-05-06 16:34 | 40.78486 | 24.65157 | 37029 ft | 472 kts | 154° |
| 2026-05-06 16:34 | 40.72650 | 24.69161 | 37039 ft | 473 kts | 154° |
| 2026-05-06 16:35 | 40.66804 | 24.73163 | 37030 ft | 473 kts | 154° |
| 2026-05-06 16:35 | 40.60955 | 24.77161 | 37047 ft | 473 kts | 154° |
| 2026-05-06 16:36 | 40.55115 | 24.81144 | 37040 ft | 472 kts | 154° |
| 2026-05-06 16:36 | 40.49285 | 24.85112 | 37041 ft | 471 kts | 154° |
| 2026-05-06 16:37 | 40.43470 | 24.89063 | 37036 ft | 470 kts | 154° |
| 2026-05-06 16:37 | 40.37656 | 24.93005 | 37046 ft | 469 kts | 154° |
| 2026-05-06 16:38 | 40.31859 | 24.96928 | 37041 ft | 468 kts | 154° |
| 2026-05-06 16:38 | 40.26072 | 25.00836 | 37047 ft | 468 kts | 154° |
| 2026-05-06 16:39 | 40.20288 | 25.04734 | 37044 ft | 468 kts | 154° |
| 2026-05-06 16:39 | 40.14504 | 25.08627 | 37050 ft | 467 kts | 154° |
| 2026-05-06 16:40 | 40.08766 | 25.12480 | 37052 ft | 466 kts | 154° |
| 2026-05-06 16:40 | 40.02993 | 25.16350 | 37051 ft | 466 kts | 154° |
| 2026-05-06 16:41 | 39.97212 | 25.20218 | 37053 ft | 466 kts | 154° |
| 2026-05-06 16:41 | 39.91515 | 25.24259 | 37037 ft | 467 kts | 146° |
| 2026-05-06 16:42 | 39.86532 | 25.29707 | 37057 ft | 468 kts | 139° |
| 2026-05-06 16:42 | 39.81679 | 25.35356 | 37053 ft | 469 kts | 139° |
| 2026-05-06 16:43 | 39.76802 | 25.40959 | 37030 ft | 464 kts | 139° |
| 2026-05-06 16:43 | 39.74373 | 25.43720 | 36811 ft | 466 kts | 139° |
| 2026-05-06 16:43 | 39.71903 | 25.46516 | 36279 ft | 475 kts | 139° |
| 2026-05-06 16:43 | 39.69404 | 25.49338 | 35780 ft | 476 kts | 139° |
| 2026-05-06 16:44 | 39.66907 | 25.52155 | 35289 ft | 475 kts | 139° |
| 2026-05-06 16:44 | 39.64413 | 25.54966 | 34805 ft | 475 kts | 139° |
| 2026-05-06 16:44 | 39.61920 | 25.57774 | 34328 ft | 474 kts | 139° |
| 2026-05-06 16:44 | 39.59433 | 25.60573 | 33827 ft | 474 kts | 139° |
| 2026-05-06 16:45 | 39.56947 | 25.63370 | 33294 ft | 473 kts | 139° |
| 2026-05-06 16:45 | 39.54450 | 25.66175 | 32783 ft | 478 kts | 139° |
| 2026-05-06 16:45 | 39.51916 | 25.69020 | 32291 ft | 485 kts | 139° |
| 2026-05-06 16:45 | 39.49351 | 25.71897 | 31787 ft | 490 kts | 139° |
| 2026-05-06 16:46 | 39.46802 | 25.74753 | 31295 ft | 491 kts | 139° |
| 2026-05-06 16:46 | 39.44218 | 25.77645 | 30807 ft | 492 kts | 139° |
| 2026-05-06 16:46 | 39.41627 | 25.80542 | 30299 ft | 493 kts | 139° |
| 2026-05-06 16:46 | 39.39021 | 25.83453 | 29623 ft | 496 kts | 139° |
| 2026-05-06 16:47 | 39.36405 | 25.86373 | 28951 ft | 498 kts | 139° |
| 2026-05-06 16:47 | 39.33776 | 25.89303 | 28288 ft | 499 kts | 139° |
| 2026-05-06 16:47 | 39.31147 | 25.92231 | 27635 ft | 499 kts | 139° |
| 2026-05-06 16:47 | 39.28517 | 25.95153 | 27009 ft | 498 kts | 139° |
| 2026-05-06 16:48 | 39.25871 | 25.98033 | 26391 ft | 497 kts | 140° |
| 2026-05-06 16:48 | 39.23214 | 26.00877 | 25779 ft | 496 kts | 140° |
| 2026-05-06 16:48 | 39.20560 | 26.03700 | 25175 ft | 494 kts | 140° |
| 2026-05-06 16:48 | 39.17922 | 26.06504 | 24600 ft | 491 kts | 140° |
| 2026-05-06 16:49 | 39.15294 | 26.09301 | 24048 ft | 485 kts | 140° |
| 2026-05-06 16:49 | 39.12720 | 26.12044 | 23697 ft | 476 kts | 140° |
| 2026-05-06 16:49 | 39.10206 | 26.14725 | 23429 ft | 464 kts | 140° |
| 2026-05-06 16:49 | 39.07750 | 26.17345 | 23144 ft | 453 kts | 140° |
| 2026-05-06 16:50 | 39.05345 | 26.19909 | 22844 ft | 444 kts | 140° |
| 2026-05-06 16:50 | 39.02988 | 26.22420 | 22514 ft | 436 kts | 140° |
| 2026-05-06 16:50 | 39.00667 | 26.24889 | 22124 ft | 430 kts | 140° |
| 2026-05-06 16:50 | 38.99153 | 26.26498 | 22061 ft | 422 kts | 140° |
| 2026-05-06 16:51 | 38.96157 | 26.29680 | 21713 ft | 415 kts | 140° |
| 2026-05-06 16:51 | 38.93911 | 26.32065 | 21388 ft | 423 kts | 140° |
| 2026-05-06 16:51 | 38.91624 | 26.34490 | 21018 ft | 429 kts | 140° |
| 2026-05-06 16:51 | 38.89316 | 26.36935 | 20565 ft | 430 kts | 140° |
| 2026-05-06 16:52 | 38.87014 | 26.39372 | 20116 ft | 426 kts | 140° |
| 2026-05-06 16:52 | 38.84733 | 26.41784 | 19689 ft | 422 kts | 140° |
| 2026-05-06 16:52 | 38.82509 | 26.44146 | 19312 ft | 418 kts | 139° |
| 2026-05-06 16:52 | 38.80321 | 26.46568 | 18935 ft | 413 kts | 138° |
| 2026-05-06 16:53 | 38.78177 | 26.48995 | 18557 ft | 410 kts | 137° |
| 2026-05-06 16:53 | 38.76055 | 26.51406 | 18162 ft | 406 kts | 138° |
| 2026-05-06 16:53 | 38.73945 | 26.53795 | 17735 ft | 403 kts | 138° |
| 2026-05-06 16:53 | 38.71853 | 26.56152 | 17317 ft | 400 kts | 138° |
| 2026-05-06 16:54 | 38.69767 | 26.58495 | 16901 ft | 397 kts | 138° |
| 2026-05-06 16:54 | 38.67694 | 26.60819 | 16498 ft | 395 kts | 138° |
| 2026-05-06 16:54 | 38.65630 | 26.63128 | 16096 ft | 393 kts | 138° |
| 2026-05-06 16:54 | 38.63576 | 26.65424 | 15702 ft | 391 kts | 138° |
| 2026-05-06 16:55 | 38.61532 | 26.67706 | 15310 ft | 389 kts | 138° |
| 2026-05-06 16:55 | 38.59499 | 26.69973 | 14924 ft | 387 kts | 138° |
| 2026-05-06 16:55 | 38.57472 | 26.72229 | 14561 ft | 385 kts | 138° |
| 2026-05-06 16:55 | 38.55456 | 26.74470 | 14204 ft | 383 kts | 138° |
| 2026-05-06 16:56 | 38.53451 | 26.76698 | 13834 ft | 381 kts | 138° |
| 2026-05-06 16:56 | 38.51453 | 26.78916 | 13449 ft | 379 kts | 138° |
| 2026-05-06 16:56 | 38.49467 | 26.81119 | 13065 ft | 378 kts | 138° |
| 2026-05-06 16:56 | 38.47483 | 26.83319 | 12678 ft | 376 kts | 137° |
| 2026-05-06 16:57 | 38.45513 | 26.85502 | 12296 ft | 375 kts | 137° |
| 2026-05-06 16:57 | 38.43551 | 26.87675 | 11947 ft | 372 kts | 137° |
| 2026-05-06 16:57 | 38.41608 | 26.89826 | 11619 ft | 367 kts | 137° |
| 2026-05-06 16:57 | 38.39697 | 26.91939 | 11303 ft | 361 kts | 137° |
| 2026-05-06 16:58 | 38.37819 | 26.94014 | 11054 ft | 354 kts | 137° |
| 2026-05-06 16:58 | 38.35979 | 26.96048 | 10792 ft | 348 kts | 137° |
| 2026-05-06 16:58 | 38.34177 | 26.98035 | 10500 ft | 336 kts | 137° |
| 2026-05-06 16:58 | 38.32442 | 26.99946 | 10214 ft | 324 kts | 137° |
| 2026-05-06 16:59 | 38.30647 | 27.01587 | 9930 ft | 313 kts | 150° |
| 2026-05-06 16:59 | 38.28706 | 27.02793 | 9668 ft | 308 kts | 155° |
| 2026-05-06 16:59 | 38.26769 | 27.03930 | 9381 ft | 306 kts | 154° |
| 2026-05-06 16:59 | 38.24853 | 27.05090 | 9038 ft | 305 kts | 154° |
| 2026-05-06 17:00 | 38.22937 | 27.06277 | 8600 ft | 305 kts | 153° |
| 2026-05-06 17:00 | 38.21027 | 27.07389 | 8182 ft | 300 kts | 161° |
| 2026-05-06 17:00 | 38.19034 | 27.08068 | 7796 ft | 294 kts | 167° |
| 2026-05-06 17:00 | 38.17045 | 27.08599 | 7398 ft | 290 kts | 168° |
| 2026-05-06 17:01 | 38.15082 | 27.09129 | 7003 ft | 286 kts | 167° |
| 2026-05-06 17:01 | 38.13150 | 27.09682 | 6617 ft | 283 kts | 166° |
| 2026-05-06 17:01 | 38.11244 | 27.10245 | 6229 ft | 280 kts | 166° |
| 2026-05-06 17:01 | 38.09363 | 27.10809 | 5829 ft | 276 kts | 166° |
| 2026-05-06 17:02 | 38.07503 | 27.11384 | 5422 ft | 274 kts | 162° |
| 2026-05-06 17:02 | 38.05902 | 27.12606 | 5078 ft | 268 kts | 130° |
| 2026-05-06 17:02 | 38.05015 | 27.14598 | 5014 ft | 256 kts | 104° |
| 2026-05-06 17:02 | 38.04815 | 27.16806 | 4703 ft | 251 kts | 82° |
| 2026-05-06 17:03 | 38.05149 | 27.18934 | 4409 ft | 241 kts | 68° |
| 2026-05-06 17:03 | 38.06050 | 27.20612 | 4115 ft | 225 kts | 35° |
| 2026-05-06 17:03 | 38.07409 | 27.21449 | 3954 ft | 211 kts | 12° |
| 2026-05-06 17:03 | 38.08839 | 27.21591 | 3858 ft | 205 kts | 352° |
| 2026-05-06 17:04 | 38.10233 | 27.21215 | 3654 ft | 206 kts | 346° |
| 2026-05-06 17:04 | 38.11622 | 27.20791 | 3411 ft | 204 kts | 346° |
| 2026-05-06 17:04 | 38.12996 | 27.20370 | 3130 ft | 202 kts | 346° |
| 2026-05-06 17:04 | 38.14336 | 27.19965 | 2848 ft | 199 kts | 345° |
| 2026-05-06 17:05 | 38.15676 | 27.19561 | 2556 ft | 197 kts | 345° |
| 2026-05-06 17:05 | 38.17001 | 27.19162 | 2288 ft | 194 kts | 344° |
| 2026-05-06 17:05 | 38.18307 | 27.18770 | 2055 ft | 189 kts | 344° |
| 2026-05-06 17:05 | 38.19547 | 27.18398 | 1966 ft | 178 kts | 343° |
| 2026-05-06 17:06 | 38.20708 | 27.18049 | 1840 ft | 165 kts | 344° |
| 2026-05-06 17:06 | 38.21812 | 27.17715 | 1488 ft | 167 kts | 343° |
| 2026-05-06 17:06 | 38.22920 | 27.17356 | 1283 ft | 154 kts | 343° |
| 2026-05-06 17:06 | 38.23574 | 27.17148 | 1303 ft | 141 kts | 345° |
| 2026-05-06 17:07 | 38.24500 | 27.16884 | 1144 ft | 135 kts | 344° |
| 2026-05-06 17:07 | 38.25421 | 27.16625 | 899 ft | 135 kts | 346° |
| 2026-05-06 17:07 | 38.26347 | 27.16353 | 739 ft | 140 kts | 342° |
| 2026-05-06 17:07 | 38.27303 | 27.16065 | 557 ft | 142 kts | 344° |
| 2026-05-06 17:08 | 38.28261 | 27.15782 | 422 ft | 136 kts | 343° |
| 2026-05-06 17:08 | 38.29088 | 27.15511 | 416 ft | 108 kts | 347° |
| 2026-05-06 17:08 | 38.29704 | 27.15338 | 414 ft | 73 kts | 346° |
| 2026-05-06 17:08 | 38.29928 | 27.15271 | 414 ft | 16 kts | 347° |
| 2026-05-06 17:09 | 38.29988 | 27.15204 | 416 ft | 12 kts | 255° |
| 2026-05-06 17:09 | 38.29965 | 27.15082 | 408 ft | 16 kts | 256° |
| 2026-05-06 17:09 | 38.29933 | 27.14966 | 408 ft | 8 kts | 213° |
| 2026-05-06 17:09 | 38.29878 | 27.14968 | 410 ft | 9 kts | 165° |
| 2026-05-06 17:10 | 38.29815 | 27.14989 | 410 ft | 10 kts | 167° |
| 2026-05-06 17:10 | 38.29742 | 27.15008 | 410 ft | 10 kts | 167° |
| 2026-05-06 17:10 | 38.29723 | 27.14992 | 410 ft | 3 kts | 258° |
| 2026-05-06 17:10 | 38.29716 | 27.14959 | 410 ft | 5 kts | 253° |
| 2026-05-06 17:11 | 38.29711 | 27.14936 | 410 ft | 0 kts | 255° |